Time;durP1;ratioP1;P1;durP2;ratioP2;P2;SDS_P1;SDS_P2;PMS_P1;PMS_P2;Temp;Humidity;BMP_temperature;BMP_pressure;BME280_temperature;BME280_humidity;BME280_pressure;Samples;Min_cycle;Max_cycle;Signal;HPM_P1;HPM_P2
2023/08/21 00:01:18;;;;;;;7.85;5.88;;;21.50;99.90;;;;;;4995645;28;20037;-39
2023/08/21 00:03:43;;;;;;;8.30;5.72;;;21.40;99.90;;;;;;4996627;28;20036;-42
2023/08/21 00:06:10;;;;;;;7.45;5.78;;;21.50;99.90;;;;;;4998135;28;20064;-43
2023/08/21 00:08:35;;;;;;;8.05;5.47;;;21.60;99.90;;;;;;4992926;28;20054;-41
2023/08/21 00:11:01;;;;;;;8.05;5.88;;;21.50;99.90;;;;;;4996741;28;20064;-38
2023/08/21 00:13:26;;;;;;;6.25;5.25;;;21.50;99.90;;;;;;4997793;28;20467;-42
2023/08/21 00:15:54;;;;;;;10.48;6.35;;;21.40;99.90;;;;;;4998744;28;20068;-40
2023/08/21 00:18:19;;;;;;;7.82;5.97;;;21.40;99.90;;;;;;4997846;28;20037;-40
2023/08/21 00:20:45;;;;;;;7.95;5.60;;;21.30;99.90;;;;;;4992940;28;20022;-42
2023/08/21 00:23:11;;;;;;;6.75;5.22;;;21.30;99.90;;;;;;4996525;28;20053;-42
2023/08/21 00:25:36;;;;;;;9.82;6.18;;;21.30;99.90;;;;;;4995313;28;20030;-43
2023/08/21 00:28:02;;;;;;;7.32;6.22;;;21.30;99.90;;;;;;4995197;28;20506;-38
2023/08/21 00:30:27;;;;;;;7.25;5.85;;;21.30;99.90;;;;;;4996475;28;20062;-40
2023/08/21 00:32:53;;;;;;;5.47;4.43;;;21.20;99.90;;;;;;4991373;28;20062;-43
2023/08/21 00:35:19;;;;;;;5.40;4.80;;;21.20;99.90;;;;;;4992581;28;20114;-38
2023/08/21 00:37:44;;;;;;;6.50;5.00;;;21.10;99.90;;;;;;4994302;28;20052;-39
2023/08/21 00:40:10;;;;;;;5.80;4.97;;;21.00;99.90;;;;;;4989867;28;20062;-34
2023/08/21 00:42:36;;;;;;;5.80;5.20;;;20.90;99.90;;;;;;4982513;28;21508;-38
2023/08/21 00:45:03;;;;;;;8.05;6.43;;;20.90;99.90;;;;;;4984792;28;20026;-39
2023/08/21 00:47:28;;;;;;;8.75;6.03;;;20.90;99.90;;;;;;4983946;28;20041;-35
2023/08/21 00:49:55;;;;;;;6.45;5.53;;;21.00;99.90;;;;;;4982697;28;20034;-41
2023/08/21 00:52:20;;;;;;;7.32;6.03;;;21.00;99.90;;;;;;4983194;28;20517;-40
2023/08/21 00:54:46;;;;;;;7.28;6.15;;;20.90;99.90;;;;;;4984681;28;20030;-39
2023/08/21 00:57:12;;;;;;;7.03;6.32;;;20.90;99.90;;;;;;4983497;28;20041;-37
2023/08/21 00:59:39;;;;;;;7.30;5.95;;;20.90;99.90;;;;;;4988515;28;20786;-39
2023/08/21 01:02:04;;;;;;;8.25;5.47;;;20.80;99.90;;;;;;4996343;28;20408;-39
2023/08/21 01:04:30;;;;;;;8.60;5.30;;;20.70;99.90;;;;;;5003897;28;20045;-34
2023/08/21 01:06:57;;;;;;;5.65;4.25;;;20.70;99.90;;;;;;5002476;28;20053;-31
2023/08/21 01:09:58;;;;;;;6.60;4.53;;;20.70;99.90;;;;;;5003361;28;20030;-39
2023/08/21 01:12:38;;;;;;;6.53;5.60;;;20.70;99.90;;;;;;4993535;28;20276;-40
2023/08/21 01:15:06;;;;;;;7.05;5.32;;;20.60;99.90;;;;;;4999612;28;20053;-41
2023/08/21 01:17:33;;;;;;;;;;;20.60;99.90;;;;;;5001357;28;20133;-40
2023/08/21 01:20:00;;;;;;;7.38;5.97;;;20.50;99.90;;;;;;4996739;28;19925;-37
2023/08/21 01:22:27;;;;;;;8.45;5.78;;;20.60;99.90;;;;;;5000446;28;20034;-40
2023/08/21 01:24:54;;;;;;;9.10;5.88;;;20.60;99.90;;;;;;5001271;28;20065;-37
2023/08/21 01:27:21;;;;;;;7.03;6.22;;;20.70;99.90;;;;;;4996481;28;20160;-40
2023/08/21 01:29:47;;;;;;;12.00;8.82;;;20.70;99.90;;;;;;4995740;28;20100;-33
2023/08/21 01:32:15;;;;;;;8.07;6.22;;;20.70;99.90;;;;;;4995924;28;20042;-34
2023/08/21 01:34:42;;;;;;;8.98;6.10;;;20.60;99.90;;;;;;4993063;28;20033;-39
2023/08/21 01:37:09;;;;;;;7.00;6.33;;;20.40;99.90;;;;;;4995092;28;20446;-41
2023/08/21 01:39:34;;;;;;;6.95;6.05;;;20.30;99.90;;;;;;5000190;28;20980;-41
2023/08/21 01:42:00;;;;;;;8.93;5.43;;;20.30;99.90;;;;;;4998396;28;20152;-41
2023/08/21 01:44:26;;;;;;;6.78;5.38;;;20.40;99.90;;;;;;4997675;28;20019;-41
2023/08/21 01:46:52;;;;;;;6.00;4.85;;;20.20;99.90;;;;;;4999530;28;20037;-39
2023/08/21 01:49:19;;;;;;;6.32;5.30;;;20.00;99.90;;;;;;4998796;28;20041;-37
2023/08/21 01:51:45;;;;;;;5.68;4.97;;;19.80;99.90;;;;;;4996903;28;20055;-39
2023/08/21 01:54:11;;;;;;;6.38;5.75;;;19.80;99.90;;;;;;5001031;28;20029;-41
2023/08/21 01:56:36;;;;;;;6.80;5.53;;;19.90;99.90;;;;;;5002586;28;20022;-41
2023/08/21 01:59:04;;;;;;;7.63;5.53;;;19.80;99.90;;;;;;4996906;28;20029;-40
2023/08/21 02:01:29;;;;;;;6.68;5.97;;;19.80;99.90;;;;;;4998204;28;20499;-33
2023/08/21 02:03:55;;;;;;;7.75;5.95;;;19.80;99.90;;;;;;5000581;28;20034;-38
2023/08/21 02:06:20;;;;;;;6.82;5.75;;;19.80;99.90;;;;;;5001606;28;20574;-41
2023/08/21 02:08:46;;;;;;;8.65;6.45;;;19.90;99.90;;;;;;4996804;28;20526;-40
2023/08/21 02:11:11;;;;;;;7.78;6.15;;;19.90;99.90;;;;;;4996934;28;20117;-40
2023/08/21 02:13:37;;;;;;;8.60;6.45;;;19.90;99.90;;;;;;4998698;28;20561;-38
2023/08/21 02:16:03;;;;;;;8.15;6.18;;;19.90;99.90;;;;;;5002293;28;20069;-40
2023/08/21 02:18:29;;;;;;;6.95;5.82;;;19.90;99.90;;;;;;4998738;28;20018;-31
2023/08/21 02:20:54;;;;;;;6.32;4.72;;;19.70;99.90;;;;;;4999644;28;20025;-36
2023/08/21 02:23:20;;;;;;;6.80;5.22;;;19.70;99.90;;;;;;4997366;28;20128;-32
2023/08/21 02:25:46;;;;;;;7.47;5.55;;;19.70;99.90;;;;;;4997311;28;20030;-35
2023/08/21 02:28:12;;;;;;;8.23;6.03;;;19.60;99.90;;;;;;4997595;28;20482;-33
2023/08/21 02:30:40;;;;;;;6.63;5.78;;;19.60;99.90;;;;;;4994896;28;20018;-34
2023/08/21 02:33:06;;;;;;;8.85;5.95;;;19.60;99.90;;;;;;5001871;28;20449;-32
2023/08/21 02:35:32;;;;;;;8.80;5.72;;;19.70;99.90;;;;;;4997840;28;20034;-34
2023/08/21 02:37:57;;;;;;;6.20;5.60;;;19.70;99.90;;;;;;4996863;28;20424;-35
2023/08/21 02:40:23;;;;;;;7.70;6.07;;;19.70;99.90;;;;;;5012644;28;20030;-34
2023/08/21 02:42:48;;;;;;;7.72;6.25;;;19.70;99.90;;;;;;4995543;28;20525;-35
2023/08/21 02:45:14;;;;;;;8.73;6.65;;;19.60;99.90;;;;;;5000317;28;20022;-33
2023/08/21 02:47:40;;;;;;;8.05;6.63;;;19.50;99.90;;;;;;4998235;28;21016;-32
2023/08/21 02:50:07;;;;;;;7.35;6.63;;;19.40;99.90;;;;;;4999116;28;21949;-37
2023/08/21 02:52:34;;;;;;;9.95;6.47;;;19.40;99.90;;;;;;5001157;28;20467;-32
2023/08/21 02:54:59;;;;;;;7.13;6.43;;;19.40;99.90;;;;;;5001540;28;20022;-32
2023/08/21 02:57:26;;;;;;;7.95;5.90;;;19.40;99.90;;;;;;5000135;28;20092;-36
2023/08/21 02:59:52;;;;;;;8.88;6.13;;;19.40;99.90;;;;;;4999875;28;20065;-32
2023/08/21 03:02:18;;;;;;;7.68;6.03;;;19.40;99.90;;;;;;4994539;28;20574;-33
2023/08/21 03:04:44;;;;;;;6.70;6.05;;;19.50;99.90;;;;;;4996140;28;20026;-34
2023/08/21 03:07:09;;;;;;;6.28;5.68;;;19.30;99.90;;;;;;4986691;28;21888;-32
2023/08/21 03:09:37;;;;;;;9.88;6.47;;;19.40;99.90;;;;;;4983667;28;20042;-35
2023/08/21 03:12:02;;;;;;;6.57;5.68;;;19.40;99.90;;;;;;4984026;28;20800;-32
2023/08/21 03:14:28;;;;;;;6.68;5.43;;;19.40;99.90;;;;;;4984289;28;20049;-34
2023/08/21 03:16:54;;;;;;;8.98;5.32;;;19.40;99.90;;;;;;4985792;28;20042;-34
2023/08/21 03:19:19;;;;;;;6.22;5.60;;;19.50;99.90;;;;;;4983904;28;20646;-36
2023/08/21 03:21:45;;;;;;;7.60;5.78;;;19.40;99.90;;;;;;4985248;28;20037;-32
2023/08/21 03:24:10;;;;;;;7.20;5.45;;;19.10;99.90;;;;;;4989912;28;20025;-33
2023/08/21 03:26:36;;;;;;;6.78;5.57;;;19.00;99.90;;;;;;4995199;28;20537;-34
2023/08/21 03:29:02;;;;;;;8.05;5.93;;;19.10;99.90;;;;;;5001704;28;20046;-32
2023/08/21 03:31:28;;;;;;;5.78;5.18;;;19.20;99.90;;;;;;4996598;28;20038;-37
2023/08/21 03:33:53;;;;;;;6.63;5.40;;;19.20;99.90;;;;;;4997309;28;20487;-37
2023/08/21 03:36:19;;;;;;;7.78;5.90;;;19.20;99.90;;;;;;4999071;28;20141;-30
2023/08/21 03:38:45;;;;;;;7.82;5.50;;;19.20;99.90;;;;;;4998939;28;20034;-31
2023/08/21 03:41:11;;;;;;;7.07;5.43;;;19.00;99.90;;;;;;5000543;28;20510;-31
2023/08/21 03:43:36;;;;;;;6.75;5.20;;;19.00;99.90;;;;;;4999118;28;20500;-33
2023/08/21 03:46:02;;;;;;;6.60;5.15;;;19.00;99.90;;;;;;5000500;28;20029;-30
2023/08/21 03:48:28;;;;;;;5.78;4.65;;;19.00;99.90;;;;;;4996447;28;20034;-34
2023/08/21 03:50:54;;;;;;;5.80;4.57;;;19.00;99.90;;;;;;4997835;28;20026;-31
2023/08/21 03:53:19;;;;;;;6.88;4.68;;;19.00;99.90;;;;;;5000028;28;20097;-34
2023/08/21 03:55:45;;;;;;;6.00;4.95;;;19.00;99.90;;;;;;5001044;28;20391;-31
2023/08/21 03:58:10;;;;;;;7.10;5.38;;;19.10;99.90;;;;;;4999709;28;20491;-31
2023/08/21 04:00:36;;;;;;;8.20;6.38;;;19.10;99.90;;;;;;4998923;28;20030;-31
2023/08/21 04:03:02;;;;;;;6.20;5.60;;;19.00;99.90;;;;;;4998153;28;20033;-31
2023/08/21 04:05:27;;;;;;;8.80;5.95;;;18.90;99.90;;;;;;4996493;28;20041;-32
2023/08/21 04:07:53;;;;;;;9.60;6.75;;;18.90;99.90;;;;;;4995817;28;20029;-32
2023/08/21 04:10:18;;;;;;;9.15;6.60;;;18.90;99.90;;;;;;5001056;28;20034;-31
2023/08/21 04:12:44;;;;;;;9.55;6.38;;;19.00;99.90;;;;;;4997563;28;20084;-31
2023/08/21 04:15:10;;;;;;;8.55;6.38;;;19.00;99.90;;;;;;5000624;28;20033;-31
2023/08/21 04:17:36;;;;;;;9.52;7.10;;;19.00;99.90;;;;;;4999155;28;20092;-30
2023/08/21 04:20:01;;;;;;;9.65;6.90;;;18.90;99.90;;;;;;4995694;28;20116;-37
2023/08/21 04:22:27;;;;;;;7.30;6.47;;;18.80;99.90;;;;;;4987069;28;20044;-33
2023/08/21 04:24:52;;;;;;;9.25;5.97;;;18.70;99.90;;;;;;4991249;28;20425;-32
2023/08/21 04:27:18;;;;;;;11.20;6.60;;;18.80;99.90;;;;;;4997069;28;20068;-33
2023/08/21 04:29:43;;;;;;;8.15;6.28;;;18.90;99.90;;;;;;4997771;28;20030;-37
2023/08/21 04:32:09;;;;;;;9.68;6.43;;;18.90;99.90;;;;;;4999256;28;20118;-31
2023/08/21 04:34:35;;;;;;;11.32;6.65;;;18.90;99.90;;;;;;5000816;28;20057;-36
2023/08/21 04:37:01;;;;;;;8.48;6.00;;;18.80;99.90;;;;;;4998930;28;20112;-32
2023/08/21 04:39:26;;;;;;;7.88;6.13;;;18.80;99.90;;;;;;4999212;28;20501;-32
2023/08/21 04:41:52;;;;;;;9.90;6.00;;;18.70;99.90;;;;;;4995986;28;20037;-31
2023/08/21 04:44:18;;;;;;;7.90;6.63;;;18.80;99.90;;;;;;4995336;28;20484;-32
2023/08/21 04:46:47;;;;;;;10.98;6.68;;;18.70;99.90;;;;;;4996649;28;20518;-32
2023/08/21 04:49:13;;;;;;;7.22;5.85;;;18.80;99.90;;;;;;4995047;28;20109;-34
2023/08/21 04:51:38;;;;;;;7.13;6.22;;;18.80;99.90;;;;;;4997101;28;20294;-32
2023/08/21 04:54:04;;;;;;;10.27;6.68;;;18.80;99.90;;;;;;4999861;28;20030;-31
2023/08/21 04:56:29;;;;;;;9.02;6.05;;;18.90;99.90;;;;;;5002503;28;20034;-37
2023/08/21 04:58:55;;;;;;;11.27;6.38;;;18.80;99.90;;;;;;4998720;28;20034;-30
2023/08/21 05:01:21;;;;;;;10.02;6.80;;;18.80;99.90;;;;;;4997891;28;20030;-32
2023/08/21 05:03:46;;;;;;;13.02;6.90;;;18.90;99.90;;;;;;4998605;28;20065;-36
2023/08/21 05:06:12;;;;;;;17.13;7.93;;;18.80;99.90;;;;;;4995568;28;20165;-32
2023/08/21 05:08:37;;;;;;;15.48;7.47;;;18.90;99.90;;;;;;4993263;28;20034;-35
2023/08/21 05:11:03;;;;;;;12.75;6.65;;;18.90;99.90;;;;;;4996460;28;20033;-31
2023/08/21 05:13:29;;;;;;;8.30;6.72;;;18.90;99.90;;;;;;4995026;28;20026;-32
2023/08/21 05:15:58;;;;;;;8.35;6.20;;;18.90;99.90;;;;;;4988075;28;20077;-32
2023/08/21 05:18:25;;;;;;;8.90;6.03;;;19.00;99.90;;;;;;4993711;28;20081;-32
2023/08/21 05:20:53;;;;;;;8.77;6.60;;;19.00;99.90;;;;;;4995485;28;20026;-35
2023/08/21 05:23:19;;;;;;;9.98;6.43;;;19.00;99.90;;;;;;4999748;28;20076;-30
2023/08/21 05:25:46;;;;;;;7.78;6.65;;;19.10;99.90;;;;;;4997545;28;20081;-34
2023/08/21 05:28:12;;;;;;;8.07;6.28;;;19.20;99.90;;;;;;4990685;28;20032;-31
2023/08/21 05:30:38;;;;;;;7.70;6.90;;;19.30;99.90;;;;;;4990421;28;20034;-31
2023/08/21 05:33:04;;;;;;;8.38;7.03;;;19.40;99.90;;;;;;4995114;28;20067;-32
2023/08/21 05:35:33;;;;;;;8.63;7.10;;;19.40;99.90;;;;;;4993979;28;20084;-32
2023/08/21 05:37:59;;;;;;;9.75;6.50;;;19.50;99.90;;;;;;4997877;28;20750;-31
2023/08/21 05:40:24;;;;;;;12.07;6.88;;;19.50;99.90;;;;;;5000043;28;20040;-31
2023/08/21 05:42:50;;;;;;;8.07;7.13;;;19.60;99.90;;;;;;5001312;28;20032;-34
2023/08/21 05:45:16;;;;;;;12.77;7.85;;;19.70;99.90;;;;;;5002186;28;22013;-30
2023/08/21 05:47:41;;;;;;;10.90;6.97;;;19.80;99.90;;;;;;4998680;28;20026;-34
2023/08/21 05:50:07;;;;;;;8.90;7.15;;;19.80;99.90;;;;;;4997726;28;20685;-33
2023/08/21 05:52:32;;;;;;;9.75;7.03;;;19.80;99.90;;;;;;4998096;28;20185;-31
2023/08/21 05:54:58;;;;;;;9.02;7.40;;;19.80;99.90;;;;;;4997733;28;20042;-31
2023/08/21 05:57:24;;;;;;;11.43;7.88;;;20.00;99.90;;;;;;4996542;28;20034;-35
2023/08/21 05:59:49;;;;;;;9.00;7.28;;;20.10;99.90;;;;;;4997746;28;20172;-31
2023/08/21 06:02:15;;;;;;;9.80;7.53;;;20.20;99.90;;;;;;5002103;28;20037;-31
2023/08/21 06:04:41;;;;;;;11.77;8.13;;;20.30;99.90;;;;;;4996407;28;20025;-33
2023/08/21 06:07:07;;;;;;;13.90;8.93;;;20.40;99.90;;;;;;4999376;28;20026;-35
2023/08/21 06:09:33;;;;;;;11.25;7.90;;;20.60;99.90;;;;;;4996908;28;20069;-31
2023/08/21 06:12:03;;;;;;;11.45;8.25;;;20.70;99.90;;;;;;4993696;28;20030;-35
2023/08/21 06:14:28;;;;;;;11.32;8.88;;;20.80;99.90;;;;;;5000134;28;20029;-32
2023/08/21 06:17:01;;;;;;;11.98;7.45;;;21.00;99.90;;;;;;4995138;28;20072;-31
2023/08/21 06:19:28;;;;;;;10.10;7.88;;;21.10;99.90;;;;;;5003653;28;20022;-32
2023/08/21 06:21:54;;;;;;;11.18;8.35;;;21.20;99.90;;;;;;4997973;28;20026;-35
2023/08/21 06:24:20;;;;;;;11.85;8.32;;;21.30;99.90;;;;;;4999200;28;20018;-36
2023/08/21 06:26:45;;;;;;;17.02;8.40;;;21.40;99.90;;;;;;4996607;28;20041;-33
2023/08/21 06:29:11;;;;;;;14.52;8.68;;;21.50;99.90;;;;;;5002687;28;20038;-31
2023/08/21 06:31:37;;;;;;;13.88;8.27;;;21.60;99.90;;;;;;4999275;28;20050;-31
2023/08/21 06:34:02;;;;;;;13.75;8.55;;;21.80;99.90;;;;;;4997062;28;20049;-33
2023/08/21 06:36:28;;;;;;;10.77;8.88;;;21.90;99.90;;;;;;4997801;28;20092;-33
2023/08/21 06:38:55;;;;;;;13.18;9.10;;;22.00;99.90;;;;;;4998500;28;20471;-31
2023/08/21 06:41:20;;;;;;;9.32;7.68;;;22.20;99.90;;;;;;4999870;28;20030;-38
2023/08/21 06:43:46;;;;;;;10.18;8.32;;;22.40;99.90;;;;;;5001881;28;20730;-31
2023/08/21 06:46:12;;;;;;;14.02;8.43;;;22.50;99.90;;;;;;5002459;28;20467;-32
2023/08/21 06:48:42;;;;;;;13.10;8.27;;;22.60;99.90;;;;;;4996556;28;20445;-32
2023/08/21 06:51:07;;;;;;;12.57;8.65;;;22.70;99.90;;;;;;5001099;28;20133;-31
2023/08/21 06:53:33;;;;;;;11.02;8.15;;;22.80;99.90;;;;;;5000505;28;20109;-31
2023/08/21 06:55:59;;;;;;;10.52;8.63;;;22.90;99.90;;;;;;5003499;28;20026;-31
2023/08/21 06:58:25;;;;;;;10.60;8.02;;;23.00;99.90;;;;;;5003065;28;20029;-32
2023/08/21 07:00:50;;;;;;;9.75;8.60;;;23.20;99.90;;;;;;5000456;28;20516;-33
2023/08/21 07:03:16;;;;;;;12.00;8.18;;;23.40;99.90;;;;;;5003290;28;20026;-31
2023/08/21 07:05:45;;;;;;;10.70;8.25;;;23.60;99.90;;;;;;5003992;28;20430;-32
2023/08/21 07:08:11;;;;;;;8.52;7.40;;;23.60;99.90;;;;;;5003385;28;20426;-36
2023/08/21 07:10:37;;;;;;;10.63;8.05;;;23.70;99.90;;;;;;5003410;28;20103;-31
2023/08/21 07:13:03;;;;;;;9.63;7.90;;;23.80;99.90;;;;;;5000418;28;20399;-31
2023/08/21 07:15:30;;;;;;;10.15;8.00;;;23.90;99.90;;;;;;5000162;28;20044;-35
2023/08/21 07:17:55;;;;;;;11.13;8.38;;;24.00;99.90;;;;;;4990306;28;20038;-35
2023/08/21 07:20:22;;;;;;;8.48;7.57;;;24.20;99.90;;;;;;5003272;28;20040;-32
2023/08/21 07:22:47;;;;;;;8.43;7.63;;;24.10;99.90;;;;;;5000852;28;20474;-36
2023/08/21 07:25:13;;;;;;;10.15;7.90;;;24.20;99.90;;;;;;5001958;28;20026;-32
2023/08/21 07:27:39;;;;;;;10.90;8.20;;;24.40;99.90;;;;;;5003129;28;20046;-32
2023/08/21 07:30:06;;;;;;;14.10;8.52;;;24.60;99.90;;;;;;5002933;28;20033;-33
2023/08/21 07:32:32;;;;;;;8.85;7.40;;;24.70;99.90;;;;;;5001209;28;20038;-31
2023/08/21 07:34:57;;;;;;;10.50;7.75;;;24.80;99.90;;;;;;5001623;28;20034;-32
2023/08/21 07:37:23;;;;;;;11.38;8.82;;;24.80;99.90;;;;;;5003332;28;20431;-34
2023/08/21 07:39:48;;;;;;;10.00;9.00;;;25.00;99.90;;;;;;5001738;28;20229;-37
2023/08/21 07:42:14;;;;;;;11.63;8.57;;;25.10;99.90;;;;;;4999811;28;20033;-34
2023/08/21 07:44:40;;;;;;;10.35;8.45;;;25.30;99.90;;;;;;5000313;28;20415;-33
2023/08/21 07:47:06;;;;;;;12.77;9.23;;;25.50;99.90;;;;;;5002362;28;20064;-31
2023/08/21 07:49:32;;;;;;;12.00;8.23;;;25.70;99.90;;;;;;5000259;28;20506;-33
2023/08/21 07:51:58;;;;;;;9.93;7.72;;;25.80;99.90;;;;;;5000894;28;20116;-32
2023/08/21 07:54:24;;;;;;;10.88;7.70;;;25.90;99.90;;;;;;5003856;28;20477;-34
2023/08/21 07:56:50;;;;;;;9.02;7.55;;;26.10;99.90;;;;;;5000562;28;20041;-34
2023/08/21 07:59:16;;;;;;;8.95;7.28;;;26.30;99.90;;;;;;5003321;28;20119;-31
2023/08/21 08:01:42;;;;;;;10.55;7.78;;;26.50;99.90;;;;;;4999065;28;20120;-33
2023/08/21 08:04:08;;;;;;;8.25;7.45;;;26.60;99.90;;;;;;5000043;28;20600;-32
2023/08/21 08:06:34;;;;;;;8.40;7.25;;;26.80;99.90;;;;;;5000593;28;20040;-32
2023/08/21 08:08:59;;;;;;;7.68;6.97;;;27.20;99.90;;;;;;4999829;28;20027;-32
2023/08/21 08:11:25;;;;;;;7.38;6.40;;;27.30;99.90;;;;;;5003404;28;20032;-31
2023/08/21 08:13:51;;;;;;;8.20;7.40;;;27.40;99.90;;;;;;4997440;28;20088;-34
2023/08/21 08:16:16;;;;;;;8.75;6.93;;;27.50;99.90;;;;;;4998688;28;20030;-31
2023/08/21 08:18:42;;;;;;;8.05;7.25;;;27.50;99.90;;;;;;5001166;28;20034;-31
2023/08/21 08:21:08;;;;;;;8.65;7.55;;;27.60;99.90;;;;;;5001174;28;20030;-35
2023/08/21 08:23:34;;;;;;;7.68;6.97;;;27.60;99.90;;;;;;5000457;28;20033;-31
2023/08/21 08:26:00;;;;;;;9.02;7.15;;;27.90;99.90;;;;;;5000677;28;20402;-31
2023/08/21 08:28:25;;;;;;;7.72;6.97;;;28.00;99.90;;;;;;5001412;28;20104;-32
2023/08/21 08:30:51;;;;;;;9.07;6.85;;;27.90;99.90;;;;;;4997523;28;20034;-35
2023/08/21 08:33:17;;;;;;;8.95;7.85;;;28.30;99.90;;;;;;5001717;28;20057;-32
2023/08/21 08:35:43;;;;;;;8.95;7.53;;;28.30;99.90;;;;;;5000546;28;20034;-31
2023/08/21 08:38:09;;;;;;;10.27;7.43;;;28.50;99.90;;;;;;4998613;28;20122;-31
2023/08/21 08:40:42;;;;;;;8.43;7.38;;;28.50;99.90;;;;;;4997164;28;20491;-31
2023/08/21 08:43:08;;;;;;;9.57;6.88;;;28.50;99.90;;;;;;4999833;28;20260;-33
2023/08/21 08:45:36;;;;;;;7.72;6.68;;;28.70;99.90;;;;;;5000549;28;20034;-30
2023/08/21 08:48:02;;;;;;;7.70;6.90;;;28.90;99.90;;;;;;4999282;28;20031;-32
2023/08/21 08:50:32;;;;;;;7.78;6.97;;;28.80;99.90;;;;;;4999007;28;20030;-31
2023/08/21 08:52:59;;;;;;;9.38;6.90;;;28.90;99.90;;;;;;5000102;28;20030;-31
2023/08/21 08:55:25;;;;;;;8.75;7.03;;;29.00;99.90;;;;;;4999087;28;20026;-31
2023/08/21 08:57:53;;;;;;;8.02;7.22;;;29.10;99.90;;;;;;4999393;28;20088;-36
2023/08/21 09:00:20;;;;;;;7.32;6.63;;;29.20;99.90;;;;;;5002509;28;20065;-36
2023/08/21 09:02:46;;;;;;;7.90;6.85;;;29.20;99.90;;;;;;4997370;28;20025;-32
2023/08/21 09:05:12;;;;;;;8.13;6.97;;;29.40;99.90;;;;;;4999916;28;20044;-31
2023/08/21 09:07:38;;;;;;;8.05;7.35;;;29.30;99.90;;;;;;5002385;28;20061;-31
2023/08/21 09:10:04;;;;;;;7.93;7.20;;;29.30;99.90;;;;;;5001769;28;20030;-31
2023/08/21 09:12:32;;;;;;;8.52;6.75;;;29.40;99.90;;;;;;4996731;28;20042;-34
2023/08/21 09:14:59;;;;;;;7.57;6.88;;;29.60;99.90;;;;;;5000878;28;20046;-33
2023/08/21 09:17:30;;;;;;;8.52;7.55;;;29.30;99.90;;;;;;5001113;28;20022;-32
2023/08/21 09:20:04;;;;;;;8.00;7.22;;;29.60;99.90;;;;;;4996642;28;20022;-32
2023/08/21 09:22:33;;;;;;;7.60;6.75;;;29.90;99.90;;;;;;5000714;28;20033;-37
2023/08/21 09:25:06;;;;;;;7.82;6.45;;;29.90;99.90;;;;;;5001232;28;20030;-34
2023/08/21 09:27:33;;;;;;;7.93;6.40;;;29.90;99.90;;;;;;5002938;28;20091;-36
2023/08/21 09:30:02;;;;;;;7.55;6.82;;;29.80;99.90;;;;;;5003994;28;20424;-35
2023/08/21 09:32:27;;;;;;;8.25;7.43;;;29.90;99.90;;;;;;5003983;28;20041;-32
2023/08/21 09:34:53;;;;;;;7.85;7.05;;;29.60;99.90;;;;;;5000986;28;20391;-32
2023/08/21 09:37:19;;;;;;;8.63;7.00;;;29.80;99.90;;;;;;4996673;28;20041;-35
2023/08/21 09:39:46;;;;;;;8.32;7.30;;;30.00;99.90;;;;;;5000735;28;20034;-33
2023/08/21 09:42:12;;;;;;;8.80;8.00;;;29.70;99.90;;;;;;5000566;28;20025;-35
2023/08/21 09:44:39;;;;;;;7.88;7.25;;;30.00;99.90;;;;;;5001570;28;20762;-32
2023/08/21 09:47:07;;;;;;;;;;;29.70;99.90;;;;;;5001779;28;20429;-36
2023/08/21 09:49:34;;;;;;;8.57;7.78;;;30.10;99.90;;;;;;5001105;28;20421;-34
2023/08/21 09:52:01;;;;;;;8.07;7.27;;;29.70;99.90;;;;;;4995652;28;20062;-35
2023/08/21 09:54:28;;;;;;;10.00;7.53;;;29.90;99.90;;;;;;4995025;28;20379;-36
2023/08/21 09:56:54;;;;;;;9.35;7.20;;;30.20;99.90;;;;;;5002343;28;20495;-32
2023/08/21 09:59:20;;;;;;;8.20;7.40;;;30.50;99.90;;;;;;4997617;28;20029;-35
2023/08/21 10:01:50;;;;;;;7.75;6.97;;;30.60;99.90;;;;;;5000509;28;20025;-36
2023/08/21 10:04:17;;;;;;;9.07;7.88;;;31.00;99.90;;;;;;4998669;28;20030;-34
2023/08/21 10:06:45;;;;;;;9.50;7.25;;;31.10;99.90;;;;;;4998751;28;20034;-32
2023/08/21 10:09:11;;;;;;;8.30;7.50;;;31.00;99.90;;;;;;5000669;28;20038;-34
2023/08/21 10:11:37;;;;;;;8.25;7.20;;;31.10;99.90;;;;;;4998804;28;20033;-33
2023/08/21 10:14:03;;;;;;;10.13;8.10;;;31.20;99.90;;;;;;5001523;28;20359;-34
2023/08/21 10:16:29;;;;;;;8.70;7.75;;;31.40;99.90;;;;;;4999740;28;20104;-32
2023/08/21 10:18:55;;;;;;;8.60;7.53;;;31.30;99.90;;;;;;4996950;28;20041;-32
2023/08/21 10:21:22;;;;;;;9.02;8.07;;;31.00;99.90;;;;;;5001822;28;20030;-33
2023/08/21 10:23:53;;;;;;;8.35;7.60;;;31.00;99.90;;;;;;5002405;28;20022;-32
2023/08/21 10:26:21;;;;;;;8.70;7.90;;;30.70;99.90;;;;;;5000757;28;20038;-35
2023/08/21 10:29:06;;;;;;;8.75;7.93;;;30.40;99.90;;;;;;5002130;28;20073;-34
2023/08/21 10:31:34;;;;;;;8.50;7.70;;;30.10;99.90;;;;;;4998057;28;20038;-38
2023/08/21 10:34:03;;;;;;;8.50;7.68;;;29.90;99.90;;;;;;5001880;28;20096;-40
2023/08/21 10:36:44;;;;;;;8.68;7.78;;;29.80;99.90;;;;;;4997405;28;20499;-40
2023/08/21 10:39:17;;;;;;;8.45;7.60;;;29.80;99.90;;;;;;4999455;28;20125;-39
2023/08/21 10:42:04;;;;;;;7.97;7.18;;;30.00;99.90;;;;;;4998098;28;20100;-41
2023/08/21 10:44:59;;;;;;;9.27;8.30;;;30.30;99.90;;;;;;4997703;28;20030;-33
2023/08/21 10:47:27;;;;;;;7.90;7.20;;;30.30;99.90;;;;;;4998588;28;20113;-39
2023/08/21 10:49:55;;;;;;;9.52;8.10;;;30.30;99.90;;;;;;4998266;28;20120;-40
2023/08/21 10:52:22;;;;;;;8.68;7.72;;;30.80;99.90;;;;;;4998530;28;20125;-38
2023/08/21 10:54:52;;;;;;;7.55;6.95;;;31.20;99.90;;;;;;4997161;28;20387;-37
2023/08/21 10:57:19;;;;;;;8.32;7.43;;;31.90;99.90;;;;;;5000695;28;20110;-37
2023/08/21 10:59:51;;;;;;;8.45;6.90;;;32.30;99.90;;;;;;5000177;28;20021;-41
2023/08/21 11:02:18;;;;;;;8.35;7.55;;;32.20;99.90;;;;;;4997299;28;20038;-39
2023/08/21 11:04:44;;;;;;;8.32;7.55;;;31.70;99.90;;;;;;4996483;28;20156;-39
2023/08/21 11:07:10;;;;;;;9.13;7.30;;;31.30;99.90;;;;;;4997649;28;20038;-40
2023/08/21 11:09:36;;;;;;;9.48;7.40;;;31.20;99.90;;;;;;5000559;28;20037;-39
2023/08/21 11:12:10;;;;;;;9.30;6.90;;;31.50;99.90;;;;;;5000749;28;20033;-41
2023/08/21 11:14:36;;;;;;;7.57;6.88;;;31.60;99.90;;;;;;4994855;28;20053;-40
2023/08/21 11:17:03;;;;;;;7.15;6.45;;;31.80;99.90;;;;;;5000263;28;20065;-41
2023/08/21 11:19:31;;;;;;;7.10;6.40;;;32.40;99.90;;;;;;5000037;28;20517;-38
2023/08/21 11:21:56;;;;;;;7.30;6.70;;;32.60;99.90;;;;;;5004356;28;20120;-38
2023/08/21 11:24:22;;;;;;;9.45;6.22;;;32.70;99.90;;;;;;4999662;28;20559;-40
2023/08/21 11:26:48;;;;;;;8.30;6.05;;;32.60;99.90;;;;;;4998681;28;20502;-37
2023/08/21 11:29:14;;;;;;;7.05;6.10;;;32.40;99.90;;;;;;4996293;28;20034;-40
2023/08/21 11:31:40;;;;;;;6.97;6.22;;;32.50;99.90;;;;;;5002628;28;20045;-36
2023/08/21 11:34:05;;;;;;;7.93;6.68;;;32.80;99.90;;;;;;4997830;28;20038;-41
2023/08/21 11:36:31;;;;;;;8.27;7.10;;;32.40;99.90;;;;;;4993180;28;20057;-38
2023/08/21 11:38:59;;;;;;;7.65;6.85;;;31.90;99.90;;;;;;4998426;28;20026;-32
2023/08/21 11:41:25;;;;;;;6.93;6.25;;;31.50;99.90;;;;;;4997790;28;20022;-32
2023/08/21 11:43:51;;;;;;;7.55;6.53;;;31.70;99.90;;;;;;4997241;28;20509;-32
2023/08/21 11:46:18;;;;;;;9.07;6.97;;;32.00;99.90;;;;;;4996250;28;20030;-33
2023/08/21 11:48:45;;;;;;;8.07;6.75;;;32.40;99.90;;;;;;4997516;28;20778;-31
2023/08/21 11:51:11;;;;;;;7.18;6.43;;;32.00;99.90;;;;;;5000599;28;20049;-32
2023/08/21 11:53:38;;;;;;;7.43;6.72;;;31.70;99.90;;;;;;4997486;28;20038;-33
2023/08/21 11:56:10;;;;;;;7.20;6.50;;;31.60;99.90;;;;;;5001995;28;20046;-35
2023/08/21 11:58:40;;;;;;;6.85;6.28;;;31.80;99.90;;;;;;4996133;28;20041;-32
2023/08/21 12:01:15;;;;;;;7.88;6.18;;;32.40;99.90;;;;;;4999059;28;20036;-31
2023/08/21 12:03:41;;;;;;;6.80;6.18;;;32.60;99.90;;;;;;4997236;28;20025;-33
2023/08/21 12:06:08;;;;;;;6.88;6.20;;;32.90;99.90;;;;;;4996138;28;20045;-32
2023/08/21 12:08:34;;;;;;;;;;;33.30;99.90;;;;;;4997437;28;20029;-35
2023/08/21 12:11:00;;;;;;;10.50;6.38;;;33.60;99.90;;;;;;5000892;28;20467;-33
2023/08/21 12:13:25;;;;;;;7.28;6.03;;;33.80;99.90;;;;;;4998558;28;20019;-35
2023/08/21 12:15:51;;;;;;;7.13;6.30;;;33.90;99.90;;;;;;4998063;28;20038;-32
2023/08/21 12:18:16;;;;;;;7.00;6.30;;;33.60;99.90;;;;;;4993052;28;20042;-35
2023/08/21 12:20:42;;;;;;;6.68;5.97;;;33.80;99.90;;;;;;5001084;28;20022;-36
2023/08/21 12:23:07;;;;;;;7.32;6.40;;;33.70;99.90;;;;;;5000075;28;20022;-32
2023/08/21 12:25:33;;;;;;;7.10;6.15;;;33.90;99.90;;;;;;5002975;28;20148;-33
2023/08/21 12:27:58;;;;;;;9.50;6.00;;;34.10;99.90;;;;;;5000823;28;20037;-33
2023/08/21 12:30:25;;;;;;;8.80;6.65;;;34.00;99.90;;;;;;4998015;28;20026;-31
2023/08/21 12:32:51;;;;;;;7.78;6.07;;;33.60;99.90;;;;;;4989608;28;20504;-33
2023/08/21 12:35:16;;;;;;;8.82;6.40;;;33.60;99.90;;;;;;4994960;28;20041;-32
2023/08/21 12:37:42;;;;;;;6.70;6.00;;;33.70;99.90;;;;;;5003361;28;20487;-31
2023/08/21 12:40:08;;;;;;;7.00;6.25;;;33.10;99.90;;;;;;4998285;28;20033;-32
2023/08/21 12:42:34;;;;;;;7.17;6.33;;;32.60;99.90;;;;;;4995516;28;20387;-34